sensor_id;sensor_type;location;lat;lon;timestamp;temperature;humidity
5723;DHT22;2886;49.722;8.612;2022-12-07T00:01:31;4.20;99.90
5723;DHT22;2886;49.722;8.612;2022-12-07T00:03:59;4.20;99.90
5723;DHT22;2886;49.722;8.612;2022-12-07T00:06:39;4.20;99.90
5723;DHT22;2886;49.722;8.612;2022-12-07T00:09:06;4.20;99.90
5723;DHT22;2886;49.722;8.612;2022-12-07T00:11:33;4.20;99.90
5723;DHT22;2886;49.722;8.612;2022-12-07T00:14:00;4.30;99.90
5723;DHT22;2886;49.722;8.612;2022-12-07T00:16:29;4.30;99.90
5723;DHT22;2886;49.722;8.612;2022-12-07T00:18:56;4.30;99.90
5723;DHT22;2886;49.722;8.612;2022-12-07T00:21:26;4.30;99.90
5723;DHT22;2886;49.722;8.612;2022-12-07T00:23:53;4.30;99.90
5723;DHT22;2886;49.722;8.612;2022-12-07T00:26:22;4.30;99.90
5723;DHT22;2886;49.722;8.612;2022-12-07T00:28:50;4.40;99.90
5723;DHT22;2886;49.722;8.612;2022-12-07T00:31:17;4.40;99.90
5723;DHT22;2886;49.722;8.612;2022-12-07T00:33:44;4.40;99.90
5723;DHT22;2886;49.722;8.612;2022-12-07T00:36:12;4.40;99.90
5723;DHT22;2886;49.722;8.612;2022-12-07T00:38:39;4.40;99.90
5723;DHT22;2886;49.722;8.612;2022-12-07T00:41:07;4.40;99.90
5723;DHT22;2886;49.722;8.612;2022-12-07T00:43:34;4.40;99.90
5723;DHT22;2886;49.722;8.612;2022-12-07T00:46:00;4.40;99.90
5723;DHT22;2886;49.722;8.612;2022-12-07T00:48:26;4.40;99.90
5723;DHT22;2886;49.722;8.612;2022-12-07T00:50:52;4.40;99.90
5723;DHT22;2886;49.722;8.612;2022-12-07T00:53:17;4.40;99.90
5723;DHT22;2886;49.722;8.612;2022-12-07T00:55:44;4.40;99.90
5723;DHT22;2886;49.722;8.612;2022-12-07T00:58:10;4.40;99.90
5723;DHT22;2886;49.722;8.612;2022-12-07T01:00:38;4.50;99.90
5723;DHT22;2886;49.722;8.612;2022-12-07T01:03:05;4.50;99.90
5723;DHT22;2886;49.722;8.612;2022-12-07T01:05:30;4.50;99.90
5723;DHT22;2886;49.722;8.612;2022-12-07T01:07:56;4.50;99.90
5723;DHT22;2886;49.722;8.612;2022-12-07T01:10:21;4.40;99.90
5723;DHT22;2886;49.722;8.612;2022-12-07T01:12:47;4.40;99.90
5723;DHT22;2886;49.722;8.612;2022-12-07T01:15:13;4.40;99.90
5723;DHT22;2886;49.722;8.612;2022-12-07T01:17:39;4.40;99.90
5723;DHT22;2886;49.722;8.612;2022-12-07T01:20:05;4.40;99.90
5723;DHT22;2886;49.722;8.612;2022-12-07T01:22:31;4.40;99.90
5723;DHT22;2886;49.722;8.612;2022-12-07T01:24:57;4.40;99.90
5723;DHT22;2886;49.722;8.612;2022-12-07T01:27:23;4.30;99.90
5723;DHT22;2886;49.722;8.612;2022-12-07T01:29:48;4.30;99.90
5723;DHT22;2886;49.722;8.612;2022-12-07T01:32:14;4.30;99.90
5723;DHT22;2886;49.722;8.612;2022-12-07T01:34:39;4.30;99.90
5723;DHT22;2886;49.722;8.612;2022-12-07T01:37:05;4.30;99.90
5723;DHT22;2886;49.722;8.612;2022-12-07T01:39:30;4.30;99.90
5723;DHT22;2886;49.722;8.612;2022-12-07T01:41:56;4.30;99.90
5723;DHT22;2886;49.722;8.612;2022-12-07T01:44:29;4.30;99.90
5723;DHT22;2886;49.722;8.612;2022-12-07T01:46:58;4.30;99.90
5723;DHT22;2886;49.722;8.612;2022-12-07T01:49:35;4.30;99.90
5723;DHT22;2886;49.722;8.612;2022-12-07T01:54:42;4.30;99.90
5723;DHT22;2886;49.722;8.612;2022-12-07T01:57:09;4.30;99.90
5723;DHT22;2886;49.722;8.612;2022-12-07T01:59:35;4.30;99.90
5723;DHT22;2886;49.722;8.612;2022-12-07T02:02:02;4.30;99.90
5723;DHT22;2886;49.722;8.612;2022-12-07T02:04:29;4.30;99.90
5723;DHT22;2886;49.722;8.612;2022-12-07T02:06:55;4.20;99.90
5723;DHT22;2886;49.722;8.612;2022-12-07T02:09:22;4.20;99.90
5723;DHT22;2886;49.722;8.612;2022-12-07T02:11:49;4.20;99.90
5723;DHT22;2886;49.722;8.612;2022-12-07T02:14:15;4.20;99.90
5723;DHT22;2886;49.722;8.612;2022-12-07T02:16:51;4.20;99.90
5723;DHT22;2886;49.722;8.612;2022-12-07T02:24:57;4.10;99.90
5723;DHT22;2886;49.722;8.612;2022-12-07T02:27:40;4.10;99.90
5723;DHT22;2886;49.722;8.612;2022-12-07T02:30:13;4.20;99.90
5723;DHT22;2886;49.722;8.612;2022-12-07T02:35:47;4.30;99.90
5723;DHT22;2886;49.722;8.612;2022-12-07T02:38:31;4.30;99.90
5723;DHT22;2886;49.722;8.612;2022-12-07T02:41:16;4.30;99.90
5723;DHT22;2886;49.722;8.612;2022-12-07T02:43:47;4.30;99.90
5723;DHT22;2886;49.722;8.612;2022-12-07T02:46:40;4.40;99.90
5723;DHT22;2886;49.722;8.612;2022-12-07T02:49:05;4.40;99.90
5723;DHT22;2886;49.722;8.612;2022-12-07T02:51:32;4.40;99.90
5723;DHT22;2886;49.722;8.612;2022-12-07T02:53:59;4.40;99.90
5723;DHT22;2886;49.722;8.612;2022-12-07T02:56:37;4.40;99.90
5723;DHT22;2886;49.722;8.612;2022-12-07T03:10:40;4.40;99.90
5723;DHT22;2886;49.722;8.612;2022-12-07T03:14:05;4.50;99.90
5723;DHT22;2886;49.722;8.612;2022-12-07T03:16:16;4.50;99.90
5723;DHT22;2886;49.722;8.612;2022-12-07T03:18:53;4.50;99.90
5723;DHT22;2886;49.722;8.612;2022-12-07T03:21:27;4.40;99.90
5723;DHT22;2886;49.722;8.612;2022-12-07T03:23:56;4.50;99.90
5723;DHT22;2886;49.722;8.612;2022-12-07T03:26:31;4.50;99.90
5723;DHT22;2886;49.722;8.612;2022-12-07T03:29:06;4.50;99.90
5723;DHT22;2886;49.722;8.612;2022-12-07T03:31:39;4.50;99.90
5723;DHT22;2886;49.722;8.612;2022-12-07T03:37:36;4.50;99.90
5723;DHT22;2886;49.722;8.612;2022-12-07T03:42:36;4.50;99.90
5723;DHT22;2886;49.722;8.612;2022-12-07T03:45:03;4.50;99.90
5723;DHT22;2886;49.722;8.612;2022-12-07T03:53:18;4.60;99.90
5723;DHT22;2886;49.722;8.612;2022-12-07T03:55:46;4.50;99.90
5723;DHT22;2886;49.722;8.612;2022-12-07T03:58:16;4.50;99.90
5723;DHT22;2886;49.722;8.612;2022-12-07T04:00:43;4.50;99.90
5723;DHT22;2886;49.722;8.612;2022-12-07T04:03:10;4.50;99.90
5723;DHT22;2886;49.722;8.612;2022-12-07T04:05:36;4.50;99.90
5723;DHT22;2886;49.722;8.612;2022-12-07T04:08:02;4.50;99.90
5723;DHT22;2886;49.722;8.612;2022-12-07T04:10:28;4.50;99.90
5723;DHT22;2886;49.722;8.612;2022-12-07T04:12:54;4.50;99.90
5723;DHT22;2886;49.722;8.612;2022-12-07T04:15:20;4.50;99.90
5723;DHT22;2886;49.722;8.612;2022-12-07T04:17:45;4.40;99.90
5723;DHT22;2886;49.722;8.612;2022-12-07T04:20:11;4.40;99.90
5723;DHT22;2886;49.722;8.612;2022-12-07T04:22:37;4.40;99.90
5723;DHT22;2886;49.722;8.612;2022-12-07T04:25:04;4.40;99.90
5723;DHT22;2886;49.722;8.612;2022-12-07T04:27:30;4.40;99.90
5723;DHT22;2886;49.722;8.612;2022-12-07T04:29:55;4.30;99.90
5723;DHT22;2886;49.722;8.612;2022-12-07T04:32:22;4.30;99.90
5723;DHT22;2886;49.722;8.612;2022-12-07T04:34:48;4.40;99.90
5723;DHT22;2886;49.722;8.612;2022-12-07T04:37:13;4.30;99.90
5723;DHT22;2886;49.722;8.612;2022-12-07T04:39:39;4.30;99.90
5723;DHT22;2886;49.722;8.612;2022-12-07T04:42:05;4.30;99.90
5723;DHT22;2886;49.722;8.612;2022-12-07T04:44:30;4.30;99.90
5723;DHT22;2886;49.722;8.612;2022-12-07T04:46:56;4.20;99.90
5723;DHT22;2886;49.722;8.612;2022-12-07T04:49:23;4.20;99.90
5723;DHT22;2886;49.722;8.612;2022-12-07T04:51:49;4.20;99.90
5723;DHT22;2886;49.722;8.612;2022-12-07T04:54:16;4.20;99.90
5723;DHT22;2886;49.722;8.612;2022-12-07T04:56:42;4.20;99.90
5723;DHT22;2886;49.722;8.612;2022-12-07T04:59:27;4.30;99.90
5723;DHT22;2886;49.722;8.612;2022-12-07T05:01:52;4.30;99.90
5723;DHT22;2886;49.722;8.612;2022-12-07T05:04:18;4.30;99.90
5723;DHT22;2886;49.722;8.612;2022-12-07T05:06:44;4.30;99.90
5723;DHT22;2886;49.722;8.612;2022-12-07T05:09:10;4.30;99.90
5723;DHT22;2886;49.722;8.612;2022-12-07T05:11:35;4.30;99.90
5723;DHT22;2886;49.722;8.612;2022-12-07T05:16:34;4.30;99.90
5723;DHT22;2886;49.722;8.612;2022-12-07T05:18:59;4.30;99.90
5723;DHT22;2886;49.722;8.612;2022-12-07T05:21:25;4.40;99.90
5723;DHT22;2886;49.722;8.612;2022-12-07T05:23:51;4.30;99.90
5723;DHT22;2886;49.722;8.612;2022-12-07T05:26:17;4.30;99.90
5723;DHT22;2886;49.722;8.612;2022-12-07T05:28:42;4.30;99.90
5723;DHT22;2886;49.722;8.612;2022-12-07T05:31:08;4.30;99.90
5723;DHT22;2886;49.722;8.612;2022-12-07T05:33:34;4.30;99.90
5723;DHT22;2886;49.722;8.612;2022-12-07T05:35:59;4.40;99.90
5723;DHT22;2886;49.722;8.612;2022-12-07T05:38:33;4.40;99.90
5723;DHT22;2886;49.722;8.612;2022-12-07T05:41:04;4.40;99.90
5723;DHT22;2886;49.722;8.612;2022-12-07T05:43:30;4.50;99.90
5723;DHT22;2886;49.722;8.612;2022-12-07T05:45:56;4.50;99.90
5723;DHT22;2886;49.722;8.612;2022-12-07T05:48:22;4.50;99.90
5723;DHT22;2886;49.722;8.612;2022-12-07T05:50:48;4.50;99.90
5723;DHT22;2886;49.722;8.612;2022-12-07T05:53:14;4.50;99.90
5723;DHT22;2886;49.722;8.612;2022-12-07T05:55:40;4.50;99.90
5723;DHT22;2886;49.722;8.612;2022-12-07T05:58:06;4.50;99.90
5723;DHT22;2886;49.722;8.612;2022-12-07T06:00:50;4.50;99.90
5723;DHT22;2886;49.722;8.612;2022-12-07T06:03:16;4.50;99.90
5723;DHT22;2886;49.722;8.612;2022-12-07T06:05:41;4.50;99.90
5723;DHT22;2886;49.722;8.612;2022-12-07T06:08:07;4.50;99.90
5723;DHT22;2886;49.722;8.612;2022-12-07T06:10:33;4.50;99.90
5723;DHT22;2886;49.722;8.612;2022-12-07T06:12:59;4.50;99.90
5723;DHT22;2886;49.722;8.612;2022-12-07T06:15:24;4.50;99.90
5723;DHT22;2886;49.722;8.612;2022-12-07T06:17:50;4.40;99.90
5723;DHT22;2886;49.722;8.612;2022-12-07T06:20:15;4.40;99.90
5723;DHT22;2886;49.722;8.612;2022-12-07T06:22:41;4.50;99.90
5723;DHT22;2886;49.722;8.612;2022-12-07T06:25:07;4.50;99.90
5723;DHT22;2886;49.722;8.612;2022-12-07T06:27:33;4.50;99.90
5723;DHT22;2886;49.722;8.612;2022-12-07T06:29:59;4.40;99.90
5723;DHT22;2886;49.722;8.612;2022-12-07T06:32:25;4.50;99.90
5723;DHT22;2886;49.722;8.612;2022-12-07T06:34:50;4.50;99.90
5723;DHT22;2886;49.722;8.612;2022-12-07T06:37:16;4.50;99.90
5723;DHT22;2886;49.722;8.612;2022-12-07T06:39:42;4.50;99.90
5723;DHT22;2886;49.722;8.612;2022-12-07T06:42:07;4.50;99.90
5723;DHT22;2886;49.722;8.612;2022-12-07T06:44:33;4.60;99.90
5723;DHT22;2886;49.722;8.612;2022-12-07T06:46:59;4.60;99.90
5723;DHT22;2886;49.722;8.612;2022-12-07T06:49:24;4.60;99.90
5723;DHT22;2886;49.722;8.612;2022-12-07T06:51:50;4.60;99.90
5723;DHT22;2886;49.722;8.612;2022-12-07T06:54:15;4.60;99.90
5723;DHT22;2886;49.722;8.612;2022-12-07T06:56:41;4.60;99.90
5723;DHT22;2886;49.722;8.612;2022-12-07T06:59:07;4.60;99.90
5723;DHT22;2886;49.722;8.612;2022-12-07T07:01:35;4.60;99.90
5723;DHT22;2886;49.722;8.612;2022-12-07T07:04:00;4.60;99.90
5723;DHT22;2886;49.722;8.612;2022-12-07T07:06:26;4.60;99.90
5723;DHT22;2886;49.722;8.612;2022-12-07T07:08:52;4.60;99.90
5723;DHT22;2886;49.722;8.612;2022-12-07T07:11:18;4.60;99.90
5723;DHT22;2886;49.722;8.612;2022-12-07T07:13:44;4.60;99.90
5723;DHT22;2886;49.722;8.612;2022-12-07T07:16:10;4.60;99.90
5723;DHT22;2886;49.722;8.612;2022-12-07T07:18:36;4.60;99.90
5723;DHT22;2886;49.722;8.612;2022-12-07T07:21:02;4.60;99.90
5723;DHT22;2886;49.722;8.612;2022-12-07T07:23:28;4.60;99.90
5723;DHT22;2886;49.722;8.612;2022-12-07T07:25:53;4.60;99.90
5723;DHT22;2886;49.722;8.612;2022-12-07T07:28:19;4.60;99.90
5723;DHT22;2886;49.722;8.612;2022-12-07T07:30:45;4.50;99.90
5723;DHT22;2886;49.722;8.612;2022-12-07T07:33:10;4.60;99.90
5723;DHT22;2886;49.722;8.612;2022-12-07T07:35:36;4.50;99.90
5723;DHT22;2886;49.722;8.612;2022-12-07T07:38:02;4.50;99.90
5723;DHT22;2886;49.722;8.612;2022-12-07T07:40:28;4.60;99.90
5723;DHT22;2886;49.722;8.612;2022-12-07T07:42:55;4.60;99.90
5723;DHT22;2886;49.722;8.612;2022-12-07T07:45:22;4.60;99.90
5723;DHT22;2886;49.722;8.612;2022-12-07T07:47:48;4.60;99.90
5723;DHT22;2886;49.722;8.612;2022-12-07T07:50:14;4.60;99.90
5723;DHT22;2886;49.722;8.612;2022-12-07T07:52:40;4.60;99.90
5723;DHT22;2886;49.722;8.612;2022-12-07T07:55:06;4.60;99.90
5723;DHT22;2886;49.722;8.612;2022-12-07T07:57:34;4.70;99.90
5723;DHT22;2886;49.722;8.612;2022-12-07T08:00:00;4.70;99.90
5723;DHT22;2886;49.722;8.612;2022-12-07T08:02:26;4.70;99.90
5723;DHT22;2886;49.722;8.612;2022-12-07T08:04:55;4.70;99.90
5723;DHT22;2886;49.722;8.612;2022-12-07T08:07:20;4.70;99.90
5723;DHT22;2886;49.722;8.612;2022-12-07T08:09:46;4.80;99.90
5723;DHT22;2886;49.722;8.612;2022-12-07T08:12:12;4.80;99.90
5723;DHT22;2886;49.722;8.612;2022-12-07T08:14:37;4.80;99.90
5723;DHT22;2886;49.722;8.612;2022-12-07T08:17:03;4.80;99.90
5723;DHT22;2886;49.722;8.612;2022-12-07T08:19:29;4.80;99.90
5723;DHT22;2886;49.722;8.612;2022-12-07T08:21:55;4.90;99.90
5723;DHT22;2886;49.722;8.612;2022-12-07T08:24:22;4.90;99.90
5723;DHT22;2886;49.722;8.612;2022-12-07T08:26:48;4.90;99.90
5723;DHT22;2886;49.722;8.612;2022-12-07T08:29:15;4.90;99.90
5723;DHT22;2886;49.722;8.612;2022-12-07T08:31:40;5.00;99.90
5723;DHT22;2886;49.722;8.612;2022-12-07T08:34:06;4.90;99.90
5723;DHT22;2886;49.722;8.612;2022-12-07T08:36:31;5.00;99.90
5723;DHT22;2886;49.722;8.612;2022-12-07T08:38:57;5.00;99.90
5723;DHT22;2886;49.722;8.612;2022-12-07T08:41:23;5.00;99.90
5723;DHT22;2886;49.722;8.612;2022-12-07T08:43:48;5.00;99.90
5723;DHT22;2886;49.722;8.612;2022-12-07T08:48:44;5.00;99.90
5723;DHT22;2886;49.722;8.612;2022-12-07T08:51:12;5.10;99.90
5723;DHT22;2886;49.722;8.612;2022-12-07T08:53:38;5.10;99.90
5723;DHT22;2886;49.722;8.612;2022-12-07T08:56:05;5.20;99.90
5723;DHT22;2886;49.722;8.612;2022-12-07T08:58:33;5.20;99.90
5723;DHT22;2886;49.722;8.612;2022-12-07T09:00:59;5.20;99.90
5723;DHT22;2886;49.722;8.612;2022-12-07T09:03:25;5.20;99.90
5723;DHT22;2886;49.722;8.612;2022-12-07T09:05:50;5.30;99.90
5723;DHT22;2886;49.722;8.612;2022-12-07T09:08:17;5.30;99.90
5723;DHT22;2886;49.722;8.612;2022-12-07T09:10:43;5.20;99.90
5723;DHT22;2886;49.722;8.612;2022-12-07T09:13:08;5.20;99.90
5723;DHT22;2886;49.722;8.612;2022-12-07T09:15:34;5.30;99.90
5723;DHT22;2886;49.722;8.612;2022-12-07T09:18:00;5.30;99.90
5723;DHT22;2886;49.722;8.612;2022-12-07T09:20:25;5.30;99.90
5723;DHT22;2886;49.722;8.612;2022-12-07T09:22:51;5.40;99.90
5723;DHT22;2886;49.722;8.612;2022-12-07T09:25:17;5.40;99.90
5723;DHT22;2886;49.722;8.612;2022-12-07T09:27:42;5.40;99.90
5723;DHT22;2886;49.722;8.612;2022-12-07T09:30:08;5.40;99.90
5723;DHT22;2886;49.722;8.612;2022-12-07T09:32:34;5.40;99.90
5723;DHT22;2886;49.722;8.612;2022-12-07T09:35:00;5.40;99.90
5723;DHT22;2886;49.722;8.612;2022-12-07T09:37:26;5.50;99.90
5723;DHT22;2886;49.722;8.612;2022-12-07T09:39:51;5.50;99.90
5723;DHT22;2886;49.722;8.612;2022-12-07T09:42:29;5.50;99.90
5723;DHT22;2886;49.722;8.612;2022-12-07T09:44:58;5.60;99.90
5723;DHT22;2886;49.722;8.612;2022-12-07T09:47:25;5.60;99.90
5723;DHT22;2886;49.722;8.612;2022-12-07T09:49:51;5.70;99.90
5723;DHT22;2886;49.722;8.612;2022-12-07T09:52:25;5.80;99.90
5723;DHT22;2886;49.722;8.612;2022-12-07T09:54:52;6.00;99.90
5723;DHT22;2886;49.722;8.612;2022-12-07T09:57:25;6.00;99.90
5723;DHT22;2886;49.722;8.612;2022-12-07T09:59:53;6.10;99.90
5723;DHT22;2886;49.722;8.612;2022-12-07T10:02:28;6.20;99.90
5723;DHT22;2886;49.722;8.612;2022-12-07T10:04:59;6.30;99.90
5723;DHT22;2886;49.722;8.612;2022-12-07T10:07:24;6.30;99.90
5723;DHT22;2886;49.722;8.612;2022-12-07T10:09:50;6.20;99.90
5723;DHT22;2886;49.722;8.612;2022-12-07T10:12:15;6.20;99.90
5723;DHT22;2886;49.722;8.612;2022-12-07T10:15:04;6.30;99.90
5723;DHT22;2886;49.722;8.612;2022-12-07T10:17:38;6.40;99.90
5723;DHT22;2886;49.722;8.612;2022-12-07T10:20:13;6.50;99.90
5723;DHT22;2886;49.722;8.612;2022-12-07T10:25:28;6.60;99.90
5723;DHT22;2886;49.722;8.612;2022-12-07T10:28:13;6.70;99.90
5723;DHT22;2886;49.722;8.612;2022-12-07T10:30:53;6.70;99.90
5723;DHT22;2886;49.722;8.612;2022-12-07T10:33:44;6.70;99.90
5723;DHT22;2886;49.722;8.612;2022-12-07T10:36:33;6.60;99.90
5723;DHT22;2886;49.722;8.612;2022-12-07T10:39:03;6.50;99.90
5723;DHT22;2886;49.722;8.612;2022-12-07T10:41:29;6.50;99.90
5723;DHT22;2886;49.722;8.612;2022-12-07T10:43:56;6.50;99.90
5723;DHT22;2886;49.722;8.612;2022-12-07T10:46:56;6.40;99.90
5723;DHT22;2886;49.722;8.612;2022-12-07T11:00:25;6.70;99.90
5723;DHT22;2886;49.722;8.612;2022-12-07T11:11:05;6.70;99.90
5723;DHT22;2886;49.722;8.612;2022-12-07T11:13:46;6.80;99.90
5723;DHT22;2886;49.722;8.612;2022-12-07T11:29:41;6.90;99.90
5723;DHT22;2886;49.722;8.612;2022-12-07T11:37:59;6.70;99.90
5723;DHT22;2886;49.722;8.612;2022-12-07T11:40:30;6.70;99.90
5723;DHT22;2886;49.722;8.612;2022-12-07T11:43:02;6.80;99.90
5723;DHT22;2886;49.722;8.612;2022-12-07T11:45:34;6.80;99.90
5723;DHT22;2886;49.722;8.612;2022-12-07T11:48:01;6.70;99.90
5723;DHT22;2886;49.722;8.612;2022-12-07T11:50:32;6.80;99.90
5723;DHT22;2886;49.722;8.612;2022-12-07T11:56:03;6.80;99.90
5723;DHT22;2886;49.722;8.612;2022-12-07T12:01:15;6.80;99.90
5723;DHT22;2886;49.722;8.612;2022-12-07T12:03:47;6.80;99.90
5723;DHT22;2886;49.722;8.612;2022-12-07T12:06:13;6.80;99.90
5723;DHT22;2886;49.722;8.612;2022-12-07T12:08:53;6.90;99.90
5723;DHT22;2886;49.722;8.612;2022-12-07T12:14:01;6.90;99.90
5723;DHT22;2886;49.722;8.612;2022-12-07T12:19:23;6.90;99.90
5723;DHT22;2886;49.722;8.612;2022-12-07T12:21:55;6.90;99.90
5723;DHT22;2886;49.722;8.612;2022-12-07T12:24:25;6.80;99.90
5723;DHT22;2886;49.722;8.612;2022-12-07T12:27:05;6.80;99.90
5723;DHT22;2886;49.722;8.612;2022-12-07T12:29:37;6.80;99.90
5723;DHT22;2886;49.722;8.612;2022-12-07T12:32:14;6.80;99.90
5723;DHT22;2886;49.722;8.612;2022-12-07T12:42:57;6.90;99.90
5723;DHT22;2886;49.722;8.612;2022-12-07T12:45:28;6.90;99.90
5723;DHT22;2886;49.722;8.612;2022-12-07T12:53:02;7.10;99.90
5723;DHT22;2886;49.722;8.612;2022-12-07T12:55:58;7.20;99.90
5723;DHT22;2886;49.722;8.612;2022-12-07T12:58:33;7.20;99.90
5723;DHT22;2886;49.722;8.612;2022-12-07T13:01:38;7.30;99.90
5723;DHT22;2886;49.722;8.612;2022-12-07T13:04:18;7.30;99.90
5723;DHT22;2886;49.722;8.612;2022-12-07T13:06:46;7.30;99.90
5723;DHT22;2886;49.722;8.612;2022-12-07T13:09:31;7.40;99.90
5723;DHT22;2886;49.722;8.612;2022-12-07T13:12:05;7.40;99.90
5723;DHT22;2886;49.722;8.612;2022-12-07T13:14:52;7.40;99.90
5723;DHT22;2886;49.722;8.612;2022-12-07T13:19:56;7.30;99.90
5723;DHT22;2886;49.722;8.612;2022-12-07T13:24:58;7.20;99.90
5723;DHT22;2886;49.722;8.612;2022-12-07T13:27:27;7.20;99.90
5723;DHT22;2886;49.722;8.612;2022-12-07T13:29:54;7.20;99.90
5723;DHT22;2886;49.722;8.612;2022-12-07T13:32:26;7.20;99.90
5723;DHT22;2886;49.722;8.612;2022-12-07T13:34:53;7.10;99.90
5723;DHT22;2886;49.722;8.612;2022-12-07T13:37:28;7.10;99.90
5723;DHT22;2886;49.722;8.612;2022-12-07T13:39:57;7.00;99.90
5723;DHT22;2886;49.722;8.612;2022-12-07T13:42:32;7.00;99.90
5723;DHT22;2886;49.722;8.612;2022-12-07T13:44:59;6.90;99.90
5723;DHT22;2886;49.722;8.612;2022-12-07T13:47:31;6.90;99.90
5723;DHT22;2886;49.722;8.612;2022-12-07T13:50:00;6.90;99.90
5723;DHT22;2886;49.722;8.612;2022-12-07T13:52:30;6.90;99.90
5723;DHT22;2886;49.722;8.612;2022-12-07T13:54:57;6.90;99.90
5723;DHT22;2886;49.722;8.612;2022-12-07T13:57:25;6.90;99.90
5723;DHT22;2886;49.722;8.612;2022-12-07T13:59:52;6.90;99.90
5723;DHT22;2886;49.722;8.612;2022-12-07T14:02:20;6.80;99.90
5723;DHT22;2886;49.722;8.612;2022-12-07T14:04:47;6.80;99.90
5723;DHT22;2886;49.722;8.612;2022-12-07T14:07:26;6.70;99.90
5723;DHT22;2886;49.722;8.612;2022-12-07T14:10:00;6.60;99.90
5723;DHT22;2886;49.722;8.612;2022-12-07T14:12:27;6.50;99.90
5723;DHT22;2886;49.722;8.612;2022-12-07T14:14:54;6.50;99.90
5723;DHT22;2886;49.722;8.612;2022-12-07T14:17:23;6.60;99.90
5723;DHT22;2886;49.722;8.612;2022-12-07T14:22:31;6.70;99.90
5723;DHT22;2886;49.722;8.612;2022-12-07T14:25:00;6.70;99.90
5723;DHT22;2886;49.722;8.612;2022-12-07T14:27:31;6.80;99.90
5723;DHT22;2886;49.722;8.612;2022-12-07T14:30:00;6.90;99.90
5723;DHT22;2886;49.722;8.612;2022-12-07T14:32:28;6.90;99.90
5723;DHT22;2886;49.722;8.612;2022-12-07T14:37:28;6.90;99.90
5723;DHT22;2886;49.722;8.612;2022-12-07T14:39:53;6.90;99.90
5723;DHT22;2886;49.722;8.612;2022-12-07T14:42:19;6.80;99.90
5723;DHT22;2886;49.722;8.612;2022-12-07T14:44:45;6.70;99.90
5723;DHT22;2886;49.722;8.612;2022-12-07T14:47:11;6.70;99.90
5723;DHT22;2886;49.722;8.612;2022-12-07T14:49:37;6.70;99.90
5723;DHT22;2886;49.722;8.612;2022-12-07T14:52:03;6.60;99.90
5723;DHT22;2886;49.722;8.612;2022-12-07T14:54:31;6.60;99.90
5723;DHT22;2886;49.722;8.612;2022-12-07T14:56:57;6.50;99.90
5723;DHT22;2886;49.722;8.612;2022-12-07T14:59:23;6.50;99.90
5723;DHT22;2886;49.722;8.612;2022-12-07T15:01:48;6.50;99.90
5723;DHT22;2886;49.722;8.612;2022-12-07T15:04:14;6.50;99.90
5723;DHT22;2886;49.722;8.612;2022-12-07T15:06:40;6.50;99.90
5723;DHT22;2886;49.722;8.612;2022-12-07T15:09:10;6.40;99.90
5723;DHT22;2886;49.722;8.612;2022-12-07T15:11:35;6.40;99.90
5723;DHT22;2886;49.722;8.612;2022-12-07T15:14:01;6.30;99.90
5723;DHT22;2886;49.722;8.612;2022-12-07T15:16:41;6.40;99.90
5723;DHT22;2886;49.722;8.612;2022-12-07T15:19:33;6.30;99.90
5723;DHT22;2886;49.722;8.612;2022-12-07T15:21:58;6.30;99.90
5723;DHT22;2886;49.722;8.612;2022-12-07T15:24:25;6.30;99.90
5723;DHT22;2886;49.722;8.612;2022-12-07T15:26:51;6.30;99.90
5723;DHT22;2886;49.722;8.612;2022-12-07T15:29:17;6.20;99.90
5723;DHT22;2886;49.722;8.612;2022-12-07T15:31:43;6.30;99.90
5723;DHT22;2886;49.722;8.612;2022-12-07T15:34:09;6.30;99.90
5723;DHT22;2886;49.722;8.612;2022-12-07T15:36:35;6.20;99.90
5723;DHT22;2886;49.722;8.612;2022-12-07T15:39:01;6.20;99.90
5723;DHT22;2886;49.722;8.612;2022-12-07T15:41:27;6.20;99.90
5723;DHT22;2886;49.722;8.612;2022-12-07T15:43:52;6.20;99.90
5723;DHT22;2886;49.722;8.612;2022-12-07T15:46:39;6.20;99.90
5723;DHT22;2886;49.722;8.612;2022-12-07T15:49:17;6.20;99.90
5723;DHT22;2886;49.722;8.612;2022-12-07T15:51:43;6.20;99.90
5723;DHT22;2886;49.722;8.612;2022-12-07T15:54:27;6.10;99.90
5723;DHT22;2886;49.722;8.612;2022-12-07T15:56:53;6.10;99.90
5723;DHT22;2886;49.722;8.612;2022-12-07T15:59:19;6.10;99.90
5723;DHT22;2886;49.722;8.612;2022-12-07T16:01:45;6.10;99.90
5723;DHT22;2886;49.722;8.612;2022-12-07T16:04:10;6.00;99.90
5723;DHT22;2886;49.722;8.612;2022-12-07T16:06:36;6.00;99.90
5723;DHT22;2886;49.722;8.612;2022-12-07T16:09:03;6.00;99.90
5723;DHT22;2886;49.722;8.612;2022-12-07T16:11:28;6.00;99.90
5723;DHT22;2886;49.722;8.612;2022-12-07T16:13:54;6.00;99.90
5723;DHT22;2886;49.722;8.612;2022-12-07T16:16:20;5.90;99.90
5723;DHT22;2886;49.722;8.612;2022-12-07T16:18:48;5.90;99.90
5723;DHT22;2886;49.722;8.612;2022-12-07T16:21:15;6.00;99.90
5723;DHT22;2886;49.722;8.612;2022-12-07T16:23:41;5.90;99.90
5723;DHT22;2886;49.722;8.612;2022-12-07T16:26:13;5.90;99.90
5723;DHT22;2886;49.722;8.612;2022-12-07T16:28:38;5.90;99.90
5723;DHT22;2886;49.722;8.612;2022-12-07T16:31:07;5.90;99.90
5723;DHT22;2886;49.722;8.612;2022-12-07T16:33:37;5.90;99.90
5723;DHT22;2886;49.722;8.612;2022-12-07T16:36:04;5.90;99.90
5723;DHT22;2886;49.722;8.612;2022-12-07T16:38:30;5.90;99.90
5723;DHT22;2886;49.722;8.612;2022-12-07T16:40:56;5.90;99.90
5723;DHT22;2886;49.722;8.612;2022-12-07T16:43:21;5.90;99.90
5723;DHT22;2886;49.722;8.612;2022-12-07T16:45:48;5.90;99.90
5723;DHT22;2886;49.722;8.612;2022-12-07T16:48:14;5.90;99.90
5723;DHT22;2886;49.722;8.612;2022-12-07T16:50:41;5.90;99.90
5723;DHT22;2886;49.722;8.612;2022-12-07T16:53:11;5.90;99.90
5723;DHT22;2886;49.722;8.612;2022-12-07T16:55:39;6.00;99.90
5723;DHT22;2886;49.722;8.612;2022-12-07T16:58:05;5.90;99.90
5723;DHT22;2886;49.722;8.612;2022-12-07T17:00:31;5.90;99.90
5723;DHT22;2886;49.722;8.612;2022-12-07T17:02:57;5.90;99.90
5723;DHT22;2886;49.722;8.612;2022-12-07T17:05:22;5.90;99.90
5723;DHT22;2886;49.722;8.612;2022-12-07T17:07:51;5.90;99.90
5723;DHT22;2886;49.722;8.612;2022-12-07T17:10:16;5.90;99.90
5723;DHT22;2886;49.722;8.612;2022-12-07T17:12:42;5.90;99.90
5723;DHT22;2886;49.722;8.612;2022-12-07T17:15:09;5.90;99.90
5723;DHT22;2886;49.722;8.612;2022-12-07T17:17:54;5.90;99.90
5723;DHT22;2886;49.722;8.612;2022-12-07T17:20:22;5.90;99.90
5723;DHT22;2886;49.722;8.612;2022-12-07T17:22:48;5.80;99.90
5723;DHT22;2886;49.722;8.612;2022-12-07T17:25:15;5.90;99.90
5723;DHT22;2886;49.722;8.612;2022-12-07T17:27:40;5.90;99.90
5723;DHT22;2886;49.722;8.612;2022-12-07T17:30:07;5.80;99.90
5723;DHT22;2886;49.722;8.612;2022-12-07T17:32:33;5.80;99.90
5723;DHT22;2886;49.722;8.612;2022-12-07T17:34:58;5.80;99.90
5723;DHT22;2886;49.722;8.612;2022-12-07T17:37:25;5.80;99.90
5723;DHT22;2886;49.722;8.612;2022-12-07T17:39:54;5.80;99.90
5723;DHT22;2886;49.722;8.612;2022-12-07T17:42:23;5.70;99.90
5723;DHT22;2886;49.722;8.612;2022-12-07T17:45:06;5.70;99.90
5723;DHT22;2886;49.722;8.612;2022-12-07T17:47:32;5.70;99.90
5723;DHT22;2886;49.722;8.612;2022-12-07T17:49:57;5.70;99.90
5723;DHT22;2886;49.722;8.612;2022-12-07T17:52:23;5.70;99.90
5723;DHT22;2886;49.722;8.612;2022-12-07T17:55:07;5.60;99.90
5723;DHT22;2886;49.722;8.612;2022-12-07T17:57:33;5.60;99.90
5723;DHT22;2886;49.722;8.612;2022-12-07T17:59:59;5.60;99.90
5723;DHT22;2886;49.722;8.612;2022-12-07T18:02:24;5.50;99.90
5723;DHT22;2886;49.722;8.612;2022-12-07T18:04:50;5.60;99.90
5723;DHT22;2886;49.722;8.612;2022-12-07T18:07:17;5.60;99.90
5723;DHT22;2886;49.722;8.612;2022-12-07T18:09:43;5.60;99.90
5723;DHT22;2886;49.722;8.612;2022-12-07T18:12:08;5.60;99.90
5723;DHT22;2886;49.722;8.612;2022-12-07T18:14:34;5.60;99.90
5723;DHT22;2886;49.722;8.612;2022-12-07T18:17:00;5.50;99.90
5723;DHT22;2886;49.722;8.612;2022-12-07T18:19:25;5.60;99.90
5723;DHT22;2886;49.722;8.612;2022-12-07T18:21:51;5.60;99.90